Terminal Aerodrome Forecast
Issued by NWS

Home | Current Version | Previous Version | Text Only | Print | Product List | Glossary On
Versions: 1 2 3 4 5 6 7 8 9 10 11 12 13 14 15 16 17
566
FTUS43 KIND 281120
TAFLAF
TAF
KLAF 281120Z 2812/2912 18010G16KT P6SM BKN100
     FM281600 20011G22KT P6SM SCT040 BKN100
     FM281900 21012G22KT P6SM VCTS SCT030CB BKN050
     FM282300 18006KT P6SM BKN100
      AMD LTD TO CLD VIS AND WIND TIL 281300=

USA.gov is the U.S. government's official web portal to all federal, state and local government web resources and services.